Time;durP1;ratioP1;P1;durP2;ratioP2;P2;SDS_P1;SDS_P2;PMS_P1;PMS_P2;Temp;Humidity;BMP_temperature;BMP_pressure;BME280_temperature;BME280_humidity;BME280_pressure;Samples;Min_cycle;Max_cycle;Signal;HPM_P1;HPM_P2
2023/01/15 00:00:59;;;;;;;3.90;1.30;;;;;;;;;;5084900;28;20534;-52
2023/01/15 00:03:25;;;;;;;2.40;1.30;;;;;;;;;;5086243;28;20215;-52
2023/01/15 00:05:51;;;;;;;2.00;1.27;;;;;;;;;;5084798;28;20682;-52
2023/01/15 00:08:18;;;;;;;1.97;1.50;;;;;;;;;;5084736;28;20669;-52
2023/01/15 00:10:44;;;;;;;1.97;1.43;;;;;;;;;;5083438;28;20196;-52
2023/01/15 00:13:10;;;;;;;4.43;1.80;;;;;;;;;;5084526;28;20198;-51
2023/01/15 00:15:36;;;;;;;1.73;1.50;;;;;;;;;;5057342;28;20407;-52
2023/01/15 00:18:02;;;;;;;5.63;2.27;;;;;;;;;;5072123;28;20225;-51
2023/01/15 00:20:28;;;;;;;2.73;1.77;;;;;;;;;;5085930;28;20237;-51
2023/01/15 00:22:54;;;;;;;4.47;2.33;;;;;;;;;;5085507;28;20190;-52
2023/01/15 00:28:06;;;;;;;2.63;2.20;;;;;;;;;;5076763;28;20222;-51
2023/01/15 00:30:32;;;;;;;4.43;2.33;;;;;;;;;;5072545;28;20234;-53
2023/01/15 00:32:58;;;;;;;4.37;2.20;;;;;;;;;;5084555;28;20179;-52
2023/01/15 00:35:24;;;;;;;4.23;3.40;;;;;;;;;;5084517;28;20152;-52
2023/01/15 00:37:51;;;;;;;3.27;2.13;;;;;;;;;;5070614;28;20187;-52
2023/01/15 00:40:18;;;;;;;3.13;1.97;;;;;;;;;;5084442;28;20599;-53
2023/01/15 00:42:44;;;;;;;3.03;2.03;;;;;;;;;;5073833;28;20284;-51
2023/01/15 00:45:10;;;;;;;4.63;2.17;;;;;;;;;;5067752;28;20172;-53
2023/01/15 00:47:40;;;;;;;3.33;2.13;;;;;;;;;;5077865;28;20248;-51
2023/01/15 00:50:08;;;;;;;4.80;1.90;;;;;;;;;;5085893;28;20238;-52
2023/01/15 00:52:35;;;;;;;3.07;1.77;;;;;;;;;;5065937;28;20430;-52
2023/01/15 00:55:01;;;;;;;4.00;2.50;;;;;;;;;;5070869;28;20172;-52
2023/01/15 00:57:27;;;;;;;2.90;1.90;;;;;;;;;;5078848;28;20172;-51
2023/01/15 00:59:53;;;;;;;3.50;1.90;;;;;;;;;;5085017;28;20843;-52
2023/01/15 01:02:19;;;;;;;5.10;2.00;;;;;;;;;;5067365;28;20284;-51
2023/01/15 01:04:45;;;;;;;3.47;1.73;;;;;;;;;;5078542;28;20203;-53
2023/01/15 01:07:11;;;;;;;3.30;2.00;;;;;;;;;;5078808;28;20169;-53
2023/01/15 01:09:38;;;;;;;3.80;1.83;;;;;;;;;;5079288;28;20638;-52
2023/01/15 01:12:04;;;;;;;4.60;1.80;;;;;;;;;;5084741;28;20258;-54
2023/01/15 01:14:30;;;;;;;3.93;1.77;;;;;;;;;;5083437;28;20180;-51
2023/01/15 01:16:56;;;;;;;2.07;1.50;;;;;;;;;;5070208;28;20280;-52
2023/01/15 01:19:23;;;;;;;2.37;1.60;;;;;;;;;;5084651;28;20179;-52
2023/01/15 01:21:49;;;;;;;1.90;1.50;;;;;;;;;;5089453;28;20278;-53
2023/01/15 01:24:17;;;;;;;1.67;1.40;;;;;;;;;;5081629;28;20480;-54
2023/01/15 01:26:44;;;;;;;2.47;1.77;;;;;;;;;;5070184;28;20740;-52
2023/01/15 01:29:14;;;;;;;3.27;1.40;;;;;;;;;;5078386;28;20244;-52
2023/01/15 01:31:40;;;;;;;2.50;1.33;;;;;;;;;;5078160;28;20709;-53
2023/01/15 01:34:06;;;;;;;4.07;1.50;;;;;;;;;;5070311;28;20176;-52
2023/01/15 01:36:35;;;;;;;1.97;1.63;;;;;;;;;;5071485;28;20587;-52
2023/01/15 01:39:02;;;;;;;1.53;1.40;;;;;;;;;;5083522;28;20676;-54
2023/01/15 01:41:28;;;;;;;1.83;1.60;;;;;;;;;;5089330;27;20589;-52
2023/01/15 01:43:59;;;;;;;1.17;1.07;;;;;;;;;;5081760;28;20700;-51
2023/01/15 01:46:26;;;;;;;2.87;1.47;;;;;;;;;;5076292;28;20165;-53
2023/01/15 01:48:54;;;;;;;2.00;1.23;;;;;;;;;;5071676;28;20583;-52
2023/01/15 01:51:21;;;;;;;1.40;1.30;;;;;;;;;;5074080;28;20200;-52
2023/01/15 01:53:47;;;;;;;2.37;1.40;;;;;;;;;;5068481;28;20188;-51
2023/01/15 01:56:16;;;;;;;1.30;1.20;;;;;;;;;;5086752;28;20238;-53
2023/01/15 01:58:44;;;;;;;1.40;1.30;;;;;;;;;;5081857;28;20172;-51
2023/01/15 02:01:10;;;;;;;1.30;1.20;;;;;;;;;;5073343;28;20531;-53
2023/01/15 02:03:37;;;;;;;1.67;1.20;;;;;;;;;;5073572;28;20182;-52
2023/01/15 02:06:06;;;;;;;1.43;1.27;;;;;;;;;;5088557;28;20536;-53
2023/01/15 02:08:33;;;;;;;1.30;1.20;;;;;;;;;;5086588;28;20187;-52
2023/01/15 02:11:00;;;;;;;2.43;1.40;;;;;;;;;;5088391;28;20548;-53
2023/01/15 02:13:36;;;;;;;3.23;1.10;;;;;;;;;;5088396;28;20682;-53
2023/01/15 02:16:06;;;;;;;1.67;1.20;;;;;;;;;;5081940;28;20220;-52
2023/01/15 02:18:32;;;;;;;2.07;1.40;;;;;;;;;;5083416;28;20175;-52
2023/01/15 02:21:01;;;;;;;2.03;1.33;;;;;;;;;;5082656;28;20183;-51
2023/01/15 02:23:45;;;;;;;1.80;1.53;;;;;;;;;;5079526;28;20519;-51
2023/01/15 02:26:38;;;;;;;3.73;1.30;;;;;;;;;;5084527;28;20172;-51
2023/01/15 02:29:08;;;;;;;1.17;1.13;;;;;;;;;;5074904;28;20179;-53
2023/01/15 02:31:36;;;;;;;1.27;1.10;;;;;;;;;;5084715;28;20223;-51
2023/01/15 02:34:10;;;;;;;2.73;1.30;;;;;;;;;;5079490;28;20627;-51
2023/01/15 02:36:38;;;;;;;1.97;1.00;;;;;;;;;;5084679;28;20179;-52
2023/01/15 02:39:06;;;;;;;1.63;1.20;;;;;;;;;;5084113;28;20183;-52
2023/01/15 02:41:54;;;;;;;2.13;1.23;;;;;;;;;;5086508;28;20705;-51
2023/01/15 02:44:21;;;;;;;0.93;0.93;;;;;;;;;;5078983;28;20180;-52
2023/01/15 02:46:48;;;;;;;1.40;1.30;;;;;;;;;;5080644;28;20188;-51
2023/01/15 02:49:16;;;;;;;1.43;1.10;;;;;;;;;;5075099;28;20219;-52
2023/01/15 02:51:46;;;;;;;1.30;1.20;;;;;;;;;;5085184;28;20224;-52
2023/01/15 02:54:14;;;;;;;1.37;1.20;;;;;;;;;;5078295;28;20172;-52
2023/01/15 02:56:40;;;;;;;1.27;1.17;;;;;;;;;;5078829;28;20188;-52
2023/01/15 02:59:10;;;;;;;2.53;1.13;;;;;;;;;;5077637;28;20520;-52
2023/01/15 03:01:39;;;;;;;1.90;1.30;;;;;;;;;;5083164;28;20172;-51
2023/01/15 03:04:19;;;;;;;2.20;1.03;;;;;;;;;;5086193;28;20171;-51
2023/01/15 03:07:03;;;;;;;2.20;1.30;;;;;;;;;;5080247;28;20257;-52
2023/01/15 03:09:30;;;;;;;1.50;0.90;;;;;;;;;;5082820;28;20183;-52
2023/01/15 03:12:03;;;;;;;2.10;1.10;;;;;;;;;;5078273;28;20223;-53
2023/01/15 03:14:36;;;;;;;1.00;1.00;;;;;;;;;;5086911;28;20564;-52
2023/01/15 03:17:08;;;;;;;1.20;1.10;;;;;;;;;;5074899;28;20188;-52
2023/01/15 03:19:37;;;;;;;1.30;1.20;;;;;;;;;;5082099;28;20782;-51
2023/01/15 03:22:06;;;;;;;2.10;1.20;;;;;;;;;;5069731;28;20181;-52
2023/01/15 03:24:37;;;;;;;2.63;1.53;;;;;;;;;;5067240;28;20694;-51
2023/01/15 03:27:03;;;;;;;1.37;1.10;;;;;;;;;;5086014;28;20270;-51
2023/01/15 03:29:34;;;;;;;2.80;1.00;;;;;;;;;;5076979;28;20183;-51
2023/01/15 03:32:00;;;;;;;1.67;1.23;;;;;;;;;;5083392;28;20204;-53
2023/01/15 03:34:31;;;;;;;0.90;0.90;;;;;;;;;;5074722;28;20621;-52
2023/01/15 03:36:57;;;;;;;2.87;1.30;;;;;;;;;;5087217;28;20502;-51
2023/01/15 03:39:23;;;;;;;1.33;1.20;;;;;;;;;;5077838;28;20164;-53
2023/01/15 03:42:08;;;;;;;1.20;1.10;;;;;;;;;;5086687;28;20222;-52
2023/01/15 03:45:03;;;;;;;2.87;1.07;;;;;;;;;;5079915;28;20581;-52
2023/01/15 03:47:35;;;;;;;0.90;0.90;;;;;;;;;;5042737;28;20283;-51
2023/01/15 03:50:04;;;;;;;2.80;1.00;;;;;;;;;;5082779;28;20626;-52
2023/01/15 03:52:44;;;;;;;1.90;1.20;;;;;;;;;;5066058;28;20689;-52
2023/01/15 03:55:10;;;;;;;2.33;1.40;;;;;;;;;;5065704;28;20206;-52
2023/01/15 03:57:39;;;;;;;1.83;1.40;;;;;;;;;;5087651;28;20156;-51
2023/01/15 04:00:11;;;;;;;0.97;0.97;;;;;;;;;;5064691;28;20212;-51
2023/01/15 04:03:03;;;;;;;2.87;1.67;;;;;;;;;;5079165;28;20186;-51
2023/01/15 04:05:29;;;;;;;1.23;1.13;;;;;;;;;;5075968;28;20168;-52
2023/01/15 04:07:56;;;;;;;3.50;1.87;;;;;;;;;;5086640;28;20168;-52
2023/01/15 04:10:22;;;;;;;2.00;1.20;;;;;;;;;;5082760;28;20207;-51
2023/01/15 04:12:49;;;;;;;2.30;1.10;;;;;;;;;;5075754;28;20180;-52
2023/01/15 04:15:15;;;;;;;1.57;1.10;;;;;;;;;;5055277;28;20242;-51
2023/01/15 04:17:41;;;;;;;1.57;1.20;;;;;;;;;;5064812;28;20200;-52
2023/01/15 04:20:08;;;;;;;2.10;1.00;;;;;;;;;;5083721;28;20180;-52
2023/01/15 04:22:34;;;;;;;1.90;0.90;;;;;;;;;;5086534;28;20168;-51
2023/01/15 04:25:01;;;;;;;2.13;1.13;;;;;;;;;;5081486;28;20657;-51
2023/01/15 04:27:27;;;;;;;2.70;1.30;;;;;;;;;;5085894;28;20183;-52
2023/01/15 04:29:53;;;;;;;1.80;1.13;;;;;;;;;;5067534;28;20180;-51
2023/01/15 04:32:19;;;;;;;1.13;1.03;;;;;;;;;;5067536;28;20664;-53
2023/01/15 04:34:45;;;;;;;1.33;1.07;;;;;;;;;;5067907;28;20165;-52
2023/01/15 04:37:12;;;;;;;4.17;1.20;;;;;;;;;;5066811;28;20385;-52
2023/01/15 04:39:38;;;;;;;1.40;1.30;;;;;;;;;;5062920;28;20685;-52
2023/01/15 04:44:49;;;;;;;1.67;1.30;;;;;;;;;;5069334;28;20522;-53
2023/01/15 04:47:15;;;;;;;2.00;1.47;;;;;;;;;;5077709;28;20822;-53
2023/01/15 04:49:41;;;;;;;2.60;1.43;;;;;;;;;;5080086;28;20650;-52
2023/01/15 04:52:07;;;;;;;2.17;1.50;;;;;;;;;;5071567;28;20200;-51
2023/01/15 04:54:33;;;;;;;2.30;1.10;;;;;;;;;;5069397;28;20206;-51
2023/01/15 04:56:59;;;;;;;1.63;1.03;;;;;;;;;;5086833;28;21030;-51
2023/01/15 04:59:26;;;;;;;3.80;1.47;;;;;;;;;;5089575;28;20171;-53
2023/01/15 05:01:52;;;;;;;2.10;1.33;;;;;;;;;;5084467;28;20183;-52
2023/01/15 05:04:19;;;;;;;2.83;2.07;;;;;;;;;;5088183;28;20607;-52
2023/01/15 05:06:45;;;;;;;5.27;1.83;;;;;;;;;;5090097;28;20633;-51
2023/01/15 05:09:11;;;;;;;3.53;1.97;;;;;;;;;;5089860;28;20599;-52
2023/01/15 05:11:37;;;;;;;3.00;1.20;;;;;;;;;;5074868;28;20626;-52
2023/01/15 05:14:04;;;;;;;3.80;1.27;;;;;;;;;;5078336;28;20183;-51
2023/01/15 05:16:31;;;;;;;1.43;1.00;;;;;;;;;;5089713;28;20669;-53
2023/01/15 05:18:58;;;;;;;1.67;1.20;;;;;;;;;;5080522;28;20280;-51
2023/01/15 05:21:30;;;;;;;4.63;2.47;;;;;;;;;;5082753;28;20184;-52
2023/01/15 05:23:56;;;;;;;1.73;1.30;;;;;;;;;;5072838;28;20672;-51
2023/01/15 05:26:24;;;;;;;1.87;1.40;;;;;;;;;;5086477;28;20552;-51
2023/01/15 05:28:52;;;;;;;1.50;1.40;;;;;;;;;;5086202;28;20724;-51
2023/01/15 05:31:19;;;;;;;2.87;1.20;;;;;;;;;;5083379;28;20249;-52
2023/01/15 05:33:46;;;;;;;7.40;1.43;;;;;;;;;;5072244;28;20184;-52
2023/01/15 05:36:13;;;;;;;2.70;1.27;;;;;;;;;;5051607;28;20187;-52
2023/01/15 05:38:39;;;;;;;2.50;1.20;;;;;;;;;;5072174;28;20679;-51
2023/01/15 05:43:59;;;;;;;2.40;1.40;;;;;;;;;;5084006;28;20223;-52
2023/01/15 05:46:25;;;;;;;2.40;1.30;;;;;;;;;;5083729;28;20187;-52
2023/01/15 05:48:51;;;;;;;2.70;1.23;;;;;;;;;;5084463;28;20396;-52
2023/01/15 05:51:17;;;;;;;1.80;1.40;;;;;;;;;;5078494;28;20612;-51
2023/01/15 05:53:43;;;;;;;5.90;1.50;;;;;;;;;;5078039;28;20259;-51
2023/01/15 05:56:09;;;;;;;2.23;1.20;;;;;;;;;;5076216;28;20176;-51
2023/01/15 05:58:36;;;;;;;7.30;1.43;;;;;;;;;;5083375;28;20227;-52
2023/01/15 06:01:06;;;;;;;3.80;1.40;;;;;;;;;;5082554;28;20533;-53
2023/01/15 06:03:32;;;;;;;2.00;1.60;;;;;;;;;;5088071;28;20656;-52
2023/01/15 06:05:59;;;;;;;2.57;1.70;;;;;;;;;;5087140;28;20256;-51
2023/01/15 06:08:25;;;;;;;3.40;1.57;;;;;;;;;;5087164;28;20646;-51
2023/01/15 06:10:51;;;;;;;5.50;1.63;;;;;;;;;;5080308;28;20203;-52
2023/01/15 06:13:17;;;;;;;2.83;1.47;;;;;;;;;;5088822;28;20164;-53
2023/01/15 06:15:44;;;;;;;3.27;1.53;;;;;;;;;;5066098;28;20321;-52
2023/01/15 06:18:10;;;;;;;2.63;1.87;;;;;;;;;;5089126;28;20191;-51
2023/01/15 06:20:42;;;;;;;3.50;1.87;;;;;;;;;;5084940;28;20210;-53
2023/01/15 06:23:08;;;;;;;4.30;1.83;;;;;;;;;;5087474;28;20179;-53
2023/01/15 06:25:38;;;;;;;4.07;1.60;;;;;;;;;;5080508;28;20179;-52
2023/01/15 06:28:04;;;;;;;2.97;1.20;;;;;;;;;;5081407;28;20613;-52
2023/01/15 06:30:30;;;;;;;5.20;1.70;;;;;;;;;;5058204;28;20564;-52
2023/01/15 06:32:56;;;;;;;3.97;1.33;;;;;;;;;;5086585;28;20183;-51
2023/01/15 06:35:22;;;;;;;2.33;1.73;;;;;;;;;;5085742;28;20667;-51
2023/01/15 06:37:49;;;;;;;2.50;1.50;;;;;;;;;;5087815;28;20156;-54
2023/01/15 06:40:15;;;;;;;4.27;2.13;;;;;;;;;;5082514;28;20171;-53
2023/01/15 06:48:10;;;;;;;2.40;1.30;;;;;;;;;;5078693;28;20627;-52
2023/01/15 06:50:36;;;;;;;5.07;2.07;;;;;;;;;;5076808;28;20670;-52
2023/01/15 06:53:02;;;;;;;3.33;1.67;;;;;;;;;;5075321;28;20657;-53
2023/01/15 06:55:28;;;;;;;4.30;1.50;;;;;;;;;;5061470;28;20717;-51
2023/01/15 06:57:55;;;;;;;3.87;1.73;;;;;;;;;;5082539;28;20183;-52
2023/01/15 07:00:21;;;;;;;2.97;1.67;;;;;;;;;;5083072;28;20184;-51
2023/01/15 07:02:47;;;;;;;3.70;1.40;;;;;;;;;;5063683;28;20266;-52
2023/01/15 07:05:13;;;;;;;3.13;1.57;;;;;;;;;;5083546;28;20173;-52
2023/01/15 07:07:39;;;;;;;3.97;1.40;;;;;;;;;;5075837;28;20180;-52
2023/01/15 07:10:05;;;;;;;2.33;1.50;;;;;;;;;;5082751;28;20176;-52
2023/01/15 07:12:31;;;;;;;2.30;1.80;;;;;;;;;;5077274;28;20180;-53
2023/01/15 07:14:57;;;;;;;4.23;1.60;;;;;;;;;;5049086;28;20184;-52
2023/01/15 07:17:23;;;;;;;3.33;1.73;;;;;;;;;;5077009;28;20601;-51
2023/01/15 07:19:49;;;;;;;2.37;1.77;;;;;;;;;;5076515;28;20668;-51
2023/01/15 07:22:15;;;;;;;5.47;2.00;;;;;;;;;;5077796;28;20260;-52
2023/01/15 07:24:41;;;;;;;4.97;1.60;;;;;;;;;;5076138;28;20250;-52
2023/01/15 07:27:07;;;;;;;3.80;1.73;;;;;;;;;;5078305;28;20180;-51
2023/01/15 07:29:33;;;;;;;5.73;1.97;;;;;;;;;;5085124;28;20686;-51
2023/01/15 07:31:59;;;;;;;3.83;1.77;;;;;;;;;;5086753;28;20211;-52
2023/01/15 07:34:25;;;;;;;5.43;1.93;;;;;;;;;;5086169;28;20250;-52
2023/01/15 07:36:51;;;;;;;4.03;1.40;;;;;;;;;;5084326;28;20592;-51
2023/01/15 07:39:17;;;;;;;3.77;1.70;;;;;;;;;;5082806;28;20183;-53
2023/01/15 07:50:01;;;;;;;2.93;1.30;;;;;;;;;;5060178;28;20690;-52
2023/01/15 07:52:27;;;;;;;1.60;1.40;;;;;;;;;;5059189;28;20632;-53
2023/01/15 07:54:53;;;;;;;4.43;1.73;;;;;;;;;;5052645;28;20541;-53
2023/01/15 07:57:20;;;;;;;3.47;1.53;;;;;;;;;;5046807;28;20188;-53
2023/01/15 07:59:46;;;;;;;3.67;2.13;;;;;;;;;;5048569;28;20415;-51
2023/01/15 08:02:12;;;;;;;3.43;1.63;;;;;;;;;;5053433;28;20188;-53
2023/01/15 08:04:39;;;;;;;3.70;1.50;;;;;;;;;;5058166;28;20511;-52
2023/01/15 08:07:05;;;;;;;3.00;1.70;;;;;;;;;;5062143;28;20639;-51
2023/01/15 08:09:31;;;;;;;3.03;1.90;;;;;;;;;;5063648;28;20278;-53
2023/01/15 08:15:13;;;;;;;1.70;1.20;;;;;;;;;;5054138;28;20275;-51
2023/01/15 08:17:43;;;;;;;3.33;1.83;;;;;;;;;;5061462;28;20665;-53
2023/01/15 08:20:12;;;;;;;2.43;1.37;;;;;;;;;;5047702;28;20193;-51
2023/01/15 08:22:39;;;;;;;4.97;2.30;;;;;;;;;;5059845;28;20181;-51
2023/01/15 08:25:05;;;;;;;2.70;2.03;;;;;;;;;;5055692;28;20173;-54
2023/01/15 08:27:31;;;;;;;2.40;1.73;;;;;;;;;;5056884;28;20930;-52
2023/01/15 08:29:57;;;;;;;1.57;1.37;;;;;;;;;;5059957;28;20626;-52
2023/01/15 08:32:23;;;;;;;1.90;1.77;;;;;;;;;;5057873;28;20209;-51
2023/01/15 08:34:49;;;;;;;4.27;1.50;;;;;;;;;;5057276;28;20650;-52
2023/01/15 08:37:15;;;;;;;4.00;1.50;;;;;;;;;;5054895;28;20177;-52
2023/01/15 08:39:41;;;;;;;2.13;1.70;;;;;;;;;;5054915;28;20185;-52
2023/01/15 08:42:08;;;;;;;4.23;1.60;;;;;;;;;;5059759;28;20173;-56
2023/01/15 08:44:34;;;;;;;1.53;1.23;;;;;;;;;;5077999;28;20365;-54
2023/01/15 08:47:00;;;;;;;4.03;1.40;;;;;;;;;;5077084;28;20203;-51
2023/01/15 08:49:26;;;;;;;3.00;1.30;;;;;;;;;;5067017;28;20164;-53
2023/01/15 08:51:52;;;;;;;4.77;1.93;;;;;;;;;;5074273;28;20300;-54
2023/01/15 08:54:19;;;;;;;1.40;1.23;;;;;;;;;;5062734;28;20176;-54
2023/01/15 08:56:45;;;;;;;2.20;1.10;;;;;;;;;;5072573;28;20179;-52
2023/01/15 08:59:12;;;;;;;5.37;1.27;;;;;;;;;;5053604;28;20176;-51
2023/01/15 09:01:39;;;;;;;1.57;1.33;;;;;;;;;;5077180;28;20219;-52
2023/01/15 09:04:05;;;;;;;6.27;1.37;;;;;;;;;;5069006;28;20171;-52
2023/01/15 09:06:32;;;;;;;2.30;1.53;;;;;;;;;;5076286;28;20183;-52
2023/01/15 09:09:01;;;;;;;1.60;1.40;;;;;;;;;;5070727;28;20180;-52
2023/01/15 09:11:27;;;;;;;2.33;1.43;;;;;;;;;;5074728;28;20481;-52
2023/01/15 09:13:53;;;;;;;2.93;1.50;;;;;;;;;;5076125;28;20183;-53
2023/01/15 09:16:19;;;;;;;2.93;1.80;;;;;;;;;;5073022;28;20661;-51
2023/01/15 09:18:45;;;;;;;1.37;1.10;;;;;;;;;;5069275;28;20177;-53
2023/01/15 09:21:12;;;;;;;2.93;1.40;;;;;;;;;;5068463;28;20229;-51
2023/01/15 09:23:38;;;;;;;1.67;1.47;;;;;;;;;;5076948;28;20199;-52
2023/01/15 09:26:05;;;;;;;2.03;1.23;;;;;;;;;;5072930;28;20628;-53
2023/01/15 09:28:32;;;;;;;2.23;1.30;;;;;;;;;;5072589;28;20697;-52
2023/01/15 09:30:58;;;;;;;2.97;1.47;;;;;;;;;;5067998;28;20573;-53
2023/01/15 09:33:24;;;;;;;4.23;1.37;;;;;;;;;;5074144;28;20681;-52
2023/01/15 09:35:51;;;;;;;2.00;1.20;;;;;;;;;;5079026;28;20191;-51
2023/01/15 09:38:19;;;;;;;5.60;1.80;;;;;;;;;;5069288;28;20180;-52
2023/01/15 09:40:48;;;;;;;3.53;1.70;;;;;;;;;;5082441;28;20168;-51
2023/01/15 09:43:23;;;;;;;2.87;1.60;;;;;;;;;;5084116;28;20281;-53
2023/01/15 09:45:54;;;;;;;3.70;1.50;;;;;;;;;;5075884;28;20176;-52
2023/01/15 09:48:39;;;;;;;2.57;1.33;;;;;;;;;;5072383;28;20644;-52
2023/01/15 09:51:28;;;;;;;1.30;1.20;;;;;;;;;;5062631;28;20212;-51
2023/01/15 09:54:30;;;;;;;4.90;1.70;;;;;;;;;;5079934;28;20305;-53
2023/01/15 09:56:56;;;;;;;2.67;1.27;;;;;;;;;;5006194;28;20185;-51
2023/01/15 09:59:31;;;;;;;2.13;1.37;;;;;;;;;;5065685;28;20188;-53
2023/01/15 10:01:57;;;;;;;3.10;1.60;;;;;;;;;;5077595;28;20251;-53
2023/01/15 10:04:45;;;;;;;4.53;1.50;;;;;;;;;;5082983;28;20255;-52
2023/01/15 10:07:30;;;;;;;1.50;1.33;;;;;;;;;;5081274;28;20654;-52
2023/01/15 10:09:59;;;;;;;4.10;1.93;;;;;;;;;;5077947;28;20179;-51
2023/01/15 10:12:37;;;;;;;4.47;1.63;;;;;;;;;;5071752;28;20204;-52
2023/01/15 10:15:06;;;;;;;1.93;1.40;;;;;;;;;;5078428;28;20221;-52
2023/01/15 10:17:35;;;;;;;3.70;1.50;;;;;;;;;;5077658;28;20290;-51
2023/01/15 10:20:02;;;;;;;2.93;2.50;;;;;;;;;;5078075;28;20190;-51
2023/01/15 10:22:38;;;;;;;4.00;2.23;;;;;;;;;;5077732;28;20187;-52
2023/01/15 10:25:08;;;;;;;4.67;1.80;;;;;;;;;;5077762;28;20225;-52
2023/01/15 10:27:35;;;;;;;4.50;1.50;;;;;;;;;;5085496;28;20180;-52
2023/01/15 10:30:05;;;;;;;3.60;1.50;;;;;;;;;;5063938;28;20220;-51
2023/01/15 10:32:31;;;;;;;7.43;1.77;;;;;;;;;;5072445;28;20180;-51
2023/01/15 10:34:58;;;;;;;4.80;1.60;;;;;;;;;;5082492;28;20243;-52
2023/01/15 10:37:44;;;;;;;4.90;1.60;;;;;;;;;;5072351;28;20168;-54
2023/01/15 10:40:29;;;;;;;2.37;1.50;;;;;;;;;;5082407;28;20259;-51
2023/01/15 10:43:13;;;;;;;2.73;1.60;;;;;;;;;;5062348;28;20224;-53
2023/01/15 10:45:59;;;;;;;3.50;1.93;;;;;;;;;;5065299;28;20589;-51
2023/01/15 10:48:29;;;;;;;8.80;2.33;;;;;;;;;;5065004;28;20202;-53
2023/01/15 10:50:55;;;;;;;2.37;1.50;;;;;;;;;;5072427;28;20208;-52
2023/01/15 10:53:21;;;;;;;3.07;1.67;;;;;;;;;;5055717;28;20238;-52
2023/01/15 10:55:51;;;;;;;6.77;1.83;;;;;;;;;;5064917;28;20180;-51
2023/01/15 10:58:35;;;;;;;4.07;1.93;;;;;;;;;;5057664;28;20211;-52
2023/01/15 11:01:06;;;;;;;4.17;1.57;;;;;;;;;;5061471;28;20185;-52
2023/01/15 11:03:37;;;;;;;3.27;1.60;;;;;;;;;;5064133;28;20191;-52
2023/01/15 11:06:04;;;;;;;3.47;2.33;;;;;;;;;;5067536;28;20260;-52
2023/01/15 11:08:31;;;;;;;3.50;1.73;;;;;;;;;;5063014;28;20210;-53
2023/01/15 11:10:58;;;;;;;4.53;1.80;;;;;;;;;;5062721;28;20532;-52
2023/01/15 11:19:36;;;;;;;2.10;1.23;;;;;;;;;;5061934;28;20234;-51
2023/01/15 11:22:07;;;;;;;2.23;1.50;;;;;;;;;;5068867;28;20181;-52
2023/01/15 11:24:36;;;;;;;3.27;1.63;;;;;;;;;;5057794;28;20196;-51
2023/01/15 11:27:02;;;;;;;4.40;1.63;;;;;;;;;;5064359;28;20246;-54
2023/01/15 11:29:33;;;;;;;4.47;1.50;;;;;;;;;;5067901;28;20174;-50
2023/01/15 11:31:59;;;;;;;3.47;1.97;;;;;;;;;;5058252;28;20211;-52
2023/01/15 11:34:25;;;;;;;5.17;2.00;;;;;;;;;;5036598;28;20573;-51
2023/01/15 11:37:04;;;;;;;3.97;1.57;;;;;;;;;;5022399;28;20315;-51
2023/01/15 11:39:30;;;;;;;2.77;1.67;;;;;;;;;;5060554;28;20168;-51
2023/01/15 11:53:09;;;;;;;4.30;1.57;;;;;;;;;;5068231;28;20236;-53
2023/01/15 11:55:35;;;;;;;3.23;1.53;;;;;;;;;;5040938;28;20175;-52
2023/01/15 11:58:01;;;;;;;1.60;1.43;;;;;;;;;;5061253;28;20183;-52
2023/01/15 12:00:28;;;;;;;2.50;1.30;;;;;;;;;;5071747;28;20180;-53
2023/01/15 12:03:01;;;;;;;4.43;1.47;;;;;;;;;;5070789;28;20191;-53
2023/01/15 12:05:29;;;;;;;3.27;1.90;;;;;;;;;;5066235;28;20266;-52
2023/01/15 12:07:57;;;;;;;2.80;1.50;;;;;;;;;;5070095;28;20184;-51
2023/01/15 12:13:31;;;;;;;1.30;1.20;;;;;;;;;;5062412;28;20245;-52
2023/01/15 12:16:00;;;;;;;2.13;1.40;;;;;;;;;;5056853;28;20180;-52
2023/01/15 12:18:45;;;;;;;4.13;1.70;;;;;;;;;;5062505;28;20628;-52
2023/01/15 12:21:23;;;;;;;3.53;1.57;;;;;;;;;;5059611;28;20638;-53
2023/01/15 12:24:00;;;;;;;2.70;1.33;;;;;;;;;;5059565;28;20175;-53
2023/01/15 12:26:34;;;;;;;5.93;1.50;;;;;;;;;;5064072;28;20242;-52
2023/01/15 12:29:00;;;;;;;2.63;1.20;;;;;;;;;;5065703;28;20259;-53
2023/01/15 12:31:37;;;;;;;6.50;1.57;;;;;;;;;;5065471;28;20297;-52
2023/01/15 12:34:13;;;;;;;1.33;1.10;;;;;;;;;;5043734;28;20590;-51
2023/01/15 13:45:15;;;;;;;5.93;1.67;;;;;;;;;;5007767;28;20233;-85
2023/01/15 13:47:44;;;;;;;1.27;1.17;;;;;;;;;;4998600;28;20229;-86
2023/01/15 13:50:37;;;;;;;4.77;1.47;;;;;;;;;;5018554;28;20186;-87
2023/01/15 13:53:12;;;;;;;1.67;1.10;;;;;;;;;;5012624;28;20223;-88
2023/01/15 13:55:40;;;;;;;1.70;1.30;;;;;;;;;;5003488;28;20197;-86
2023/01/15 13:58:20;;;;;;;2.83;1.33;;;;;;;;;;5007891;28;21144;-87
2023/01/15 14:00:46;;;;;;;1.53;1.30;;;;;;;;;;5011105;28;20462;-88
2023/01/15 14:03:27;;;;;;;3.93;1.50;;;;;;;;;;4993427;28;20201;-88
2023/01/15 14:05:57;;;;;;;5.23;2.03;;;;;;;;;;4999882;28;20225;-86
